Time;durP1;ratioP1;P1;durP2;ratioP2;P2;SDS_P1;SDS_P2;PMS_P1;PMS_P2;Temp;Humidity;BMP_temperature;BMP_pressure;BME280_temperature;BME280_humidity;BME280_pressure;Samples;Min_cycle;Max_cycle;Signal;HPM_P1;HPM_P2
2022/01/21 00:01:04;;;;;;;11.63;2.20;;;;;;;;;;5108775;28;20032;-90
2022/01/21 00:03:30;;;;;;;10.15;1.73;;;;;;;;;;5057723;28;20078;-90
2022/01/21 00:05:56;;;;;;;9.57;1.98;;;;;;;;;;5108238;28;20044;-90
2022/01/21 00:08:22;;;;;;;15.77;2.78;;;;;;;;;;5108721;28;20044;-90
2022/01/21 00:10:50;;;;;;;12.98;2.35;;;;;;;;;;5057949;28;20044;-90
2022/01/21 00:13:36;;;;;;;13.77;2.38;;;;;;;;;;5057560;28;20128;-91
2022/01/21 00:16:02;;;;;;;11.38;1.85;;;;;;;;;;5057402;28;20096;-90
2022/01/21 00:18:28;;;;;;;7.57;2.28;;;;;;;;;;5057853;28;20047;-90
2022/01/21 00:31:53;;;;;;;14.88;3.45;;;;;;;;;;5075016;28;20050;-89
2022/01/21 00:34:19;;;;;;;17.75;3.00;;;;;;;;;;5109065;28;20594;-87
2022/01/21 00:36:46;;;;;;;14.50;3.38;;;;;;;;;;5075481;28;20089;-91
2022/01/21 00:39:12;;;;;;;17.90;3.25;;;;;;;;;;5058000;28;20740;-93
2022/01/21 00:41:53;;;;;;;9.57;2.58;;;;;;;;;;5108485;28;20040;-92
2022/01/21 00:44:26;;;;;;;9.02;2.50;;;;;;;;;;5091917;28;20043;-91
2022/01/21 00:46:53;;;;;;;11.85;2.67;;;;;;;;;;5107989;28;20040;-92
2022/01/21 00:49:19;;;;;;;10.15;2.47;;;;;;;;;;5074350;28;20415;-92
2022/01/21 00:51:45;;;;;;;13.20;2.03;;;;;;;;;;5091180;28;20032;-92
2022/01/21 00:54:11;;;;;;;10.07;2.58;;;;;;;;;;5073904;28;20040;-91
2022/01/21 00:56:38;;;;;;;11.05;2.30;;;;;;;;;;5073525;28;20479;-91
2022/01/21 00:59:04;;;;;;;12.52;2.55;;;;;;;;;;5107893;28;20028;-91
2022/01/21 01:01:30;;;;;;;10.43;2.22;;;;;;;;;;5107915;28;20499;-94
2022/01/21 01:03:57;;;;;;;18.83;3.53;;;;;;;;;;5073980;28;20044;-91
2022/01/21 01:06:23;;;;;;;8.50;1.98;;;;;;;;;;5090516;28;20389;-92
2022/01/21 01:08:51;;;;;;;10.88;2.25;;;;;;;;;;5107125;28;20035;-92
2022/01/21 01:11:31;;;;;;;11.65;2.03;;;;;;;;;;5057029;28;20048;-91
2022/01/21 01:22:15;;;;;;;10.43;2.53;;;;;;;;;;5072814;28;19920;-93
2022/01/21 01:27:41;;;;;;;9.65;2.38;;;;;;;;;;5107479;28;20058;-91
2022/01/21 01:30:10;;;;;;;14.27;1.92;;;;;;;;;;5106920;28;20119;-91
2022/01/21 01:32:37;;;;;;;9.75;2.25;;;;;;;;;;5056311;28;20688;-91
2022/01/21 01:35:04;;;;;;;12.63;2.42;;;;;;;;;;5056369;28;20047;-93
2022/01/21 01:40:43;;;;;;;18.23;3.00;;;;;;;;;;5073607;28;20047;-92
2022/01/21 01:50:47;;;;;;;14.45;3.30;;;;;;;;;;5073559;28;20296;-91
2022/01/21 01:53:14;;;;;;;16.17;3.33;;;;;;;;;;5073202;28;20425;-92
2022/01/21 01:55:41;;;;;;;12.80;2.35;;;;;;;;;;5056243;28;20040;-91
2022/01/21 01:58:07;;;;;;;10.63;2.38;;;;;;;;;;5056357;28;20173;-90
2022/01/21 02:00:33;;;;;;;10.45;2.50;;;;;;;;;;5073042;28;20138;-91
2022/01/21 02:03:07;;;;;;;8.60;2.10;;;;;;;;;;5056284;28;20403;-91
2022/01/21 02:05:33;;;;;;;10.57;2.50;;;;;;;;;;5056276;28;20043;-92
2022/01/21 02:08:00;;;;;;;18.05;2.30;;;;;;;;;;5056611;28;20040;-91
2022/01/21 02:10:26;;;;;;;10.95;2.42;;;;;;;;;;5056303;28;20415;-90
2022/01/21 02:13:02;;;;;;;12.60;2.10;;;;;;;;;;5106451;28;20515;-91
2022/01/21 02:15:29;;;;;;;16.25;2.75;;;;;;;;;;5056176;28;20097;-91
2022/01/21 02:23:27;;;;;;;;;;;;;;;;;;5108053;28;20141;-89
2022/01/21 02:25:53;;;;;;;5.88;1.27;;;;;;;;;;5073643;28;19939;-90
2022/01/21 02:28:20;;;;;;;7.40;1.25;;;;;;;;;;5088555;28;20132;-89
2022/01/21 02:30:59;;;;;;;7.10;1.85;;;;;;;;;;5058329;28;20116;-90
2022/01/21 02:33:26;;;;;;;9.13;1.58;;;;;;;;;;5060925;28;20125;-92
2022/01/21 02:35:53;;;;;;;10.23;2.00;;;;;;;;;;5061317;28;20570;-90
2022/01/21 02:38:19;;;;;;;8.13;1.65;;;;;;;;;;5112690;28;20062;-89
2022/01/21 02:40:46;;;;;;;9.13;1.42;;;;;;;;;;5080555;28;20040;-93
2022/01/21 02:43:14;;;;;;;9.88;1.65;;;;;;;;;;5095883;28;20426;-93
2022/01/21 02:45:45;;;;;;;8.73;1.70;;;;;;;;;;5112534;28;20079;-94
2022/01/21 02:48:11;;;;;;;9.00;1.58;;;;;;;;;;5112248;28;20470;-93
2022/01/21 02:50:37;;;;;;;7.88;1.33;;;;;;;;;;5061115;28;20051;-93
2022/01/21 02:53:40;;;;;;;6.95;1.13;;;;;;;;;;5111860;28;20036;-93
2022/01/21 02:55:55;;;;;;;8.50;1.23;;;;;;;;;;5075353;28;20135;-94
2022/01/21 02:58:22;;;;;;;10.30;2.00;;;;;;;;;;5061896;28;20476;-94
2022/01/21 03:00:49;;;;;;;8.02;1.27;;;;;;;;;;5111797;28;20044;-93
2022/01/21 03:03:15;;;;;;;9.23;1.90;;;;;;;;;;5111876;28;20036;-92
2022/01/21 03:05:41;;;;;;;8.73;1.38;;;;;;;;;;5112739;28;20157;-94
2022/01/21 03:08:08;;;;;;;8.23;1.45;;;;;;;;;;5077646;28;20044;-94
2022/01/21 03:10:34;;;;;;;6.15;1.35;;;;;;;;;;5112874;28;20134;-93
2022/01/21 03:13:00;;;;;;;10.68;1.63;;;;;;;;;;5060796;28;20050;-93
2022/01/21 03:15:26;;;;;;;8.75;1.55;;;;;;;;;;5077994;28;20119;-93
2022/01/21 03:17:52;;;;;;;8.60;1.50;;;;;;;;;;5058331;28;20480;-94
2022/01/21 03:20:18;;;;;;;6.63;1.50;;;;;;;;;;5073587;28;20037;-93
2022/01/21 03:22:45;;;;;;;7.97;1.35;;;;;;;;;;5091086;28;20083;-93
2022/01/21 03:25:11;;;;;;;8.70;1.45;;;;;;;;;;5075261;28;20036;-94
2022/01/21 03:27:37;;;;;;;9.32;1.48;;;;;;;;;;5090977;28;20087;-93
2022/01/21 03:30:04;;;;;;;8.98;1.35;;;;;;;;;;5040396;28;20048;-94
2022/01/21 03:32:30;;;;;;;5.63;1.35;;;;;;;;;;5040521;28;20484;-92
2022/01/21 03:34:57;;;;;;;3.83;1.02;;;;;;;;;;5088178;28;20047;-93
2022/01/21 03:37:23;;;;;;;7.07;1.20;;;;;;;;;;5059636;28;20123;-93
2022/01/21 03:39:49;;;;;;;6.57;1.40;;;;;;;;;;5093154;28;20039;-94
2022/01/21 03:42:16;;;;;;;11.50;1.35;;;;;;;;;;5060749;28;20032;-93
2022/01/21 03:44:42;;;;;;;7.68;1.40;;;;;;;;;;5077819;28;20040;-92
2022/01/21 03:47:08;;;;;;;7.68;1.45;;;;;;;;;;5092879;28;20092;-91
2022/01/21 03:49:40;;;;;;;5.05;1.40;;;;;;;;;;5095022;28;20044;-93
2022/01/21 03:52:07;;;;;;;3.95;0.88;;;;;;;;;;5110964;28;20047;-94
2022/01/21 03:54:35;;;;;;;7.22;1.52;;;;;;;;;;5110798;28;20043;-94
2022/01/21 03:57:02;;;;;;;6.00;1.08;;;;;;;;;;5077687;28;20488;-94
2022/01/21 03:59:28;;;;;;;6.72;1.00;;;;;;;;;;5060204;28;20039;-92
2022/01/21 04:01:56;;;;;;;4.32;1.10;;;;;;;;;;5059842;28;20032;-93
2022/01/21 04:04:22;;;;;;;5.03;1.00;;;;;;;;;;5093154;28;20377;-93
2022/01/21 04:06:48;;;;;;;5.47;1.33;;;;;;;;;;5092838;28;20123;-92
2022/01/21 04:09:15;;;;;;;8.38;1.20;;;;;;;;;;5076371;28;20036;-93
2022/01/21 04:11:41;;;;;;;5.50;0.73;;;;;;;;;;5093002;28;20755;-93
2022/01/21 04:14:08;;;;;;;7.50;0.82;;;;;;;;;;5092190;28;20488;-93
2022/01/21 04:16:34;;;;;;;9.27;1.10;;;;;;;;;;5092791;28;20131;-92
2022/01/21 04:19:00;;;;;;;5.68;1.05;;;;;;;;;;5092672;28;20123;-93
2022/01/21 04:21:27;;;;;;;6.80;1.17;;;;;;;;;;5092624;28;20047;-92
2022/01/21 04:23:53;;;;;;;6.60;1.20;;;;;;;;;;5109577;28;20422;-92
2022/01/21 04:26:19;;;;;;;5.85;1.20;;;;;;;;;;5092387;28;20119;-93
2022/01/21 04:28:46;;;;;;;6.13;1.05;;;;;;;;;;5058978;28;20040;-93
2022/01/21 04:31:12;;;;;;;5.82;1.17;;;;;;;;;;5058692;28;20101;-92
2022/01/21 04:33:38;;;;;;;6.82;1.00;;;;;;;;;;5058400;28;20403;-91
2022/01/21 04:36:05;;;;;;;4.45;1.00;;;;;;;;;;5109886;28;20072;-93
2022/01/21 04:38:31;;;;;;;7.10;1.50;;;;;;;;;;5109172;28;20032;-93
2022/01/21 04:41:06;;;;;;;6.68;1.30;;;;;;;;;;5109309;28;20122;-94
2022/01/21 04:49:01;;;;;;;;;;;;;;;;;;5075462;28;20055;-93
2022/01/21 04:51:29;;;;;;;5.75;1.20;;;;;;;;;;5075160;28;19920;-92
2022/01/21 04:53:56;;;;;;;6.55;0.90;;;;;;;;;;5058248;28;20051;-92
2022/01/21 04:56:22;;;;;;;3.63;0.70;;;;;;;;;;5075090;28;20062;-93
2022/01/21 04:58:49;;;;;;;9.98;1.50;;;;;;;;;;5074579;28;20036;-92
2022/01/21 05:01:15;;;;;;;6.10;1.10;;;;;;;;;;5092054;28;20048;-92
2022/01/21 05:03:44;;;;;;;5.30;1.20;;;;;;;;;;5058678;28;20067;-92
2022/01/21 05:06:10;;;;;;;7.68;1.52;;;;;;;;;;5058087;28;20048;-92
2022/01/21 05:08:48;;;;;;;4.32;1.15;;;;;;;;;;5092020;28;20048;-92
2022/01/21 05:11:16;;;;;;;4.88;0.80;;;;;;;;;;5109276;28;20502;-92
2022/01/21 05:13:51;;;;;;;5.93;1.55;;;;;;;;;;5091329;28;20136;-92
2022/01/21 05:16:30;;;;;;;4.97;1.20;;;;;;;;;;5109025;28;20051;-92
2022/01/21 05:18:57;;;;;;;8.60;1.20;;;;;;;;;;5091576;28;20308;-93
2022/01/21 05:21:23;;;;;;;7.05;1.48;;;;;;;;;;5057751;28;20117;-91
2022/01/21 05:23:49;;;;;;;8.50;1.50;;;;;;;;;;5057763;28;20054;-93
2022/01/21 05:26:15;;;;;;;7.63;1.10;;;;;;;;;;5075345;28;20079;-93
2022/01/21 05:28:41;;;;;;;9.35;1.48;;;;;;;;;;5057862;28;20079;-93
2022/01/21 05:31:07;;;;;;;12.55;1.98;;;;;;;;;;5108589;28;20122;-92
2022/01/21 05:33:33;;;;;;;8.02;1.40;;;;;;;;;;5108622;28;20040;-92
2022/01/21 05:35:59;;;;;;;7.65;1.75;;;;;;;;;;5091639;28;20044;-94
2022/01/21 05:38:26;;;;;;;9.32;1.52;;;;;;;;;;5075702;28;20047;-93
2022/01/21 05:40:52;;;;;;;11.52;1.58;;;;;;;;;;5074296;28;20039;-93
2022/01/21 05:43:18;;;;;;;8.93;1.65;;;;;;;;;;5057970;28;20548;-92
2022/01/21 05:48:29;;;;;;;10.80;1.90;;;;;;;;;;5108118;28;20518;-93
2022/01/21 05:50:56;;;;;;;9.40;1.63;;;;;;;;;;5091483;28;20516;-93
2022/01/21 05:53:23;;;;;;;8.63;1.70;;;;;;;;;;5108438;28;20040;-92
2022/01/21 05:55:49;;;;;;;10.88;1.90;;;;;;;;;;5058105;28;20040;-93
2022/01/21 05:58:15;;;;;;;8.63;1.70;;;;;;;;;;5074739;28;20514;-94
2022/01/21 06:00:47;;;;;;;6.68;1.17;;;;;;;;;;5091472;28;20040;-93
2022/01/21 06:03:13;;;;;;;9.65;1.73;;;;;;;;;;5058396;28;20051;-93
2022/01/21 06:05:39;;;;;;;14.40;2.03;;;;;;;;;;5078788;28;20040;-93
2022/01/21 06:08:06;;;;;;;12.80;1.83;;;;;;;;;;5079306;28;20039;-93
2022/01/21 06:10:32;;;;;;;12.80;1.77;;;;;;;;;;5097137;28;20640;-92
2022/01/21 06:12:59;;;;;;;10.23;1.65;;;;;;;;;;5072836;28;20039;-93
2022/01/21 06:15:26;;;;;;;7.60;1.73;;;;;;;;;;5082185;28;20047;-93
2022/01/21 06:17:52;;;;;;;13.02;1.63;;;;;;;;;;5078028;28;20162;-92
2022/01/21 06:20:18;;;;;;;8.85;1.60;;;;;;;;;;5061905;28;20044;-93
2022/01/21 06:22:45;;;;;;;10.23;1.60;;;;;;;;;;5053547;28;20047;-90
2022/01/21 06:25:11;;;;;;;10.35;2.63;;;;;;;;;;5070463;28;20511;-92
2022/01/21 06:27:39;;;;;;;12.77;1.75;;;;;;;;;;5061526;28;20044;-93
2022/01/21 06:30:05;;;;;;;12.25;2.08;;;;;;;;;;5111121;28;20040;-92
2022/01/21 06:32:31;;;;;;;13.48;2.67;;;;;;;;;;5060228;28;20071;-93
2022/01/21 06:34:57;;;;;;;8.75;2.03;;;;;;;;;;5060348;28;20036;-92
2022/01/21 06:37:24;;;;;;;10.35;2.03;;;;;;;;;;5110858;28;20094;-91
2022/01/21 06:39:50;;;;;;;10.30;1.75;;;;;;;;;;5076768;28;20043;-92
2022/01/21 06:42:22;;;;;;;12.88;1.95;;;;;;;;;;5079666;28;20116;-92
2022/01/21 06:44:48;;;;;;;9.20;1.55;;;;;;;;;;5072998;28;20506;-92
2022/01/21 06:47:14;;;;;;;15.30;2.10;;;;;;;;;;5114253;27;20040;-90
2022/01/21 06:49:41;;;;;;;12.77;2.05;;;;;;;;;;5105314;28;20031;-91
2022/01/21 06:52:07;;;;;;;11.27;2.40;;;;;;;;;;5061469;28;20035;-92
2022/01/21 06:54:33;;;;;;;8.00;1.60;;;;;;;;;;5074641;28;20099;-92
2022/01/21 06:56:59;;;;;;;10.25;1.90;;;;;;;;;;5056461;28;20032;-91
2022/01/21 06:59:25;;;;;;;13.10;1.92;;;;;;;;;;5056085;28;20070;-91
2022/01/21 07:02:04;;;;;;;8.35;1.85;;;;;;;;;;5072875;28;20036;-90
2022/01/21 07:04:30;;;;;;;12.43;2.15;;;;;;;;;;5056704;28;20434;-91
2022/01/21 07:06:58;;;;;;;12.80;2.22;;;;;;;;;;5059977;28;20040;-90
2022/01/21 07:09:25;;;;;;;11.73;1.83;;;;;;;;;;5056316;28;20044;-90
2022/01/21 07:11:55;;;;;;;9.45;1.63;;;;;;;;;;5072975;28;20506;-90
2022/01/21 07:14:22;;;;;;;12.23;2.10;;;;;;;;;;5067461;28;20522;-90
2022/01/21 07:16:48;;;;;;;9.60;1.90;;;;;;;;;;5104252;27;20562;-90
2022/01/21 07:19:15;;;;;;;9.43;2.08;;;;;;;;;;5110723;27;20071;-91
2022/01/21 07:21:41;;;;;;;10.27;1.98;;;;;;;;;;5065049;28;20062;-91
2022/01/21 07:24:08;;;;;;;9.13;1.73;;;;;;;;;;5090201;28;20067;-90
2022/01/21 07:26:34;;;;;;;9.23;2.08;;;;;;;;;;5064782;28;20035;-91
2022/01/21 07:29:01;;;;;;;11.15;2.10;;;;;;;;;;5095103;27;20040;-91
2022/01/21 07:31:28;;;;;;;11.65;2.20;;;;;;;;;;5089070;28;20044;-92
2022/01/21 07:33:55;;;;;;;13.43;1.83;;;;;;;;;;5055747;28;20491;-92
2022/01/21 07:36:21;;;;;;;10.73;2.08;;;;;;;;;;5089704;28;20468;-92
2022/01/21 07:38:48;;;;;;;13.40;2.15;;;;;;;;;;5089347;28;20119;-89
2022/01/21 07:41:17;;;;;;;14.75;2.33;;;;;;;;;;5067029;28;20388;-92
2022/01/21 07:43:43;;;;;;;11.50;1.90;;;;;;;;;;5067086;28;20044;-95
2022/01/21 07:46:12;;;;;;;12.82;2.45;;;;;;;;;;5066630;28;20040;-93
2022/01/21 07:48:38;;;;;;;9.55;1.90;;;;;;;;;;5065231;28;20395;-93
2022/01/21 07:51:05;;;;;;;11.90;1.83;;;;;;;;;;5062823;28;20106;-94
2022/01/21 07:53:31;;;;;;;9.98;2.10;;;;;;;;;;5079412;28;20047;-95
2022/01/21 07:55:58;;;;;;;13.20;2.20;;;;;;;;;;5062642;28;20043;-94
2022/01/21 07:58:24;;;;;;;11.30;2.17;;;;;;;;;;5077493;28;20403;-94
2022/01/21 08:00:50;;;;;;;8.40;2.60;;;;;;;;;;5061077;28;20040;-94
2022/01/21 08:03:17;;;;;;;11.13;2.28;;;;;;;;;;5060580;28;20040;-94
2022/01/21 08:05:44;;;;;;;9.45;1.92;;;;;;;;;;5061185;28;20047;-94
2022/01/21 08:08:11;;;;;;;8.70;1.75;;;;;;;;;;5077978;28;20050;-94
2022/01/21 08:10:37;;;;;;;10.40;1.70;;;;;;;;;;5061942;28;20127;-93
2022/01/21 08:13:03;;;;;;;8.82;1.90;;;;;;;;;;5078433;28;20377;-96
2022/01/21 08:15:30;;;;;;;8.80;1.83;;;;;;;;;;5061894;28;20056;-94
2022/01/21 08:17:56;;;;;;;6.88;1.95;;;;;;;;;;5062331;28;20036;-93
2022/01/21 08:20:22;;;;;;;14.25;2.10;;;;;;;;;;5076924;28;20031;-94
2022/01/21 08:22:50;;;;;;;9.68;1.70;;;;;;;;;;5059759;28;20044;-93
2022/01/21 08:25:17;;;;;;;9.02;1.92;;;;;;;;;;5060197;28;20044;-94
2022/01/21 08:27:44;;;;;;;8.30;2.28;;;;;;;;;;5058799;28;20093;-93
2022/01/21 08:30:15;;;;;;;12.75;2.42;;;;;;;;;;5058554;28;20097;-94
2022/01/21 08:32:43;;;;;;;11.48;2.35;;;;;;;;;;5059340;28;20040;-94
2022/01/21 08:35:10;;;;;;;9.30;1.85;;;;;;;;;;5077426;28;20052;-95
2022/01/21 08:37:36;;;;;;;9.98;2.60;;;;;;;;;;5077034;28;20040;-93
2022/01/21 08:40:04;;;;;;;10.18;1.92;;;;;;;;;;5075469;28;20039;-94
2022/01/21 08:42:30;;;;;;;8.23;1.80;;;;;;;;;;5075220;28;20036;-93
2022/01/21 08:44:56;;;;;;;7.72;1.63;;;;;;;;;;5076262;28;20537;-93
2022/01/21 08:47:22;;;;;;;9.23;1.70;;;;;;;;;;5074888;28;20051;-93
2022/01/21 08:49:49;;;;;;;10.40;1.98;;;;;;;;;;5075446;28;20036;-93
2022/01/21 08:52:21;;;;;;;12.20;2.10;;;;;;;;;;5073710;28;20040;-92
2022/01/21 08:54:53;;;;;;;10.98;1.90;;;;;;;;;;5084926;28;20052;-94
2022/01/21 08:57:55;;;;;;;12.07;2.33;;;;;;;;;;5073832;28;20039;-92
2022/01/21 09:01:00;;;;;;;12.43;2.20;;;;;;;;;;5087304;28;20410;-93
2022/01/21 09:03:26;;;;;;;12.02;2.70;;;;;;;;;;5057112;28;20491;-94
2022/01/21 09:05:52;;;;;;;8.63;1.60;;;;;;;;;;5056437;28;20078;-92
2022/01/21 09:08:22;;;;;;;13.13;2.85;;;;;;;;;;5077175;28;20047;-90
2022/01/21 09:10:49;;;;;;;10.75;2.25;;;;;;;;;;5077588;28;20039;-93
2022/01/21 09:13:15;;;;;;;7.68;2.25;;;;;;;;;;5077575;28;20107;-93
2022/01/21 09:15:41;;;;;;;10.73;2.30;;;;;;;;;;5078073;28;20075;-93
2022/01/21 09:18:09;;;;;;;11.60;2.55;;;;;;;;;;5077736;28;20100;-93
2022/01/21 09:20:36;;;;;;;13.45;2.47;;;;;;;;;;5066940;28;20035;-92
2022/01/21 09:23:04;;;;;;;13.77;2.63;;;;;;;;;;5057436;28;20137;-93
2022/01/21 09:25:30;;;;;;;16.55;3.42;;;;;;;;;;5057696;28;20049;-93
2022/01/21 09:27:58;;;;;;;11.77;2.88;;;;;;;;;;5056614;28;20088;-93
2022/01/21 09:30:25;;;;;;;14.23;3.30;;;;;;;;;;5058289;28;20077;-93
2022/01/21 09:32:51;;;;;;;15.38;2.60;;;;;;;;;;5057512;28;20040;-94
2022/01/21 09:35:18;;;;;;;14.95;3.20;;;;;;;;;;5057039;28;20038;-93
2022/01/21 09:37:44;;;;;;;12.98;2.53;;;;;;;;;;5057656;28;20040;-94
2022/01/21 09:40:10;;;;;;;14.60;2.88;;;;;;;;;;5091282;28;20044;-94
2022/01/21 09:42:37;;;;;;;11.18;2.60;;;;;;;;;;5091904;28;20080;-93
2022/01/21 09:45:08;;;;;;;14.60;4.10;;;;;;;;;;5091538;28;20047;-92
2022/01/21 09:47:44;;;;;;;12.45;2.92;;;;;;;;;;5108680;28;20046;-93
2022/01/21 09:50:11;;;;;;;11.98;2.67;;;;;;;;;;5056488;28;20076;-91
2022/01/21 09:52:38;;;;;;;17.98;3.90;;;;;;;;;;5054981;28;20097;-91
2022/01/21 09:55:04;;;;;;;20.60;3.83;;;;;;;;;;5056172;28;20068;-93
2022/01/21 09:57:31;;;;;;;17.38;3.50;;;;;;;;;;5090189;28;20157;-92
2022/01/21 09:59:58;;;;;;;16.38;3.72;;;;;;;;;;5054345;28;20036;-92
2022/01/21 10:02:28;;;;;;;16.73;4.03;;;;;;;;;;5088426;28;20119;-90
2022/01/21 10:04:56;;;;;;;17.42;3.95;;;;;;;;;;5104088;28;20043;-91
2022/01/21 10:07:22;;;;;;;13.48;3.42;;;;;;;;;;5105374;28;20039;-91
2022/01/21 10:09:49;;;;;;;17.13;4.15;;;;;;;;;;5055760;28;20040;-93
2022/01/21 10:12:17;;;;;;;17.05;4.18;;;;;;;;;;5055762;28;20238;-92
2022/01/21 10:14:44;;;;;;;17.48;4.20;;;;;;;;;;5055031;28;20055;-94
2022/01/21 10:17:11;;;;;;;16.02;3.72;;;;;;;;;;5055288;28;20491;-91
2022/01/21 10:19:45;;;;;;;16.30;3.67;;;;;;;;;;5054809;28;20036;-92
2022/01/21 10:22:15;;;;;;;13.13;3.13;;;;;;;;;;5054793;28;20071;-91
2022/01/21 10:24:52;;;;;;;16.23;3.55;;;;;;;;;;5054590;28;20042;-91
2022/01/21 10:27:23;;;;;;;15.50;3.47;;;;;;;;;;5071363;28;20184;-91
2022/01/21 10:29:49;;;;;;;16.73;3.45;;;;;;;;;;5089221;28;20441;-93
2022/01/21 10:32:15;;;;;;;19.33;3.33;;;;;;;;;;5055854;28;20040;-94
2022/01/21 10:34:44;;;;;;;13.02;3.22;;;;;;;;;;5055036;28;20484;-92
2022/01/21 10:37:32;;;;;;;18.20;3.80;;;;;;;;;;5089540;28;20036;-88
2022/01/21 10:40:00;;;;;;;12.95;3.10;;;;;;;;;;5088881;28;20453;-91
2022/01/21 10:42:28;;;;;;;12.80;3.17;;;;;;;;;;5088232;28;20044;-90
2022/01/21 10:44:54;;;;;;;13.38;2.95;;;;;;;;;;5070986;28;20094;-91
2022/01/21 10:47:25;;;;;;;14.48;3.15;;;;;;;;;;5054609;28;20069;-91
2022/01/21 10:49:59;;;;;;;13.77;3.53;;;;;;;;;;5090058;28;20406;-91
2022/01/21 10:52:32;;;;;;;12.38;2.97;;;;;;;;;;5059311;28;20036;-91
2022/01/21 10:54:59;;;;;;;15.23;3.40;;;;;;;;;;5091958;28;20039;-90
2022/01/21 10:57:27;;;;;;;13.18;3.33;;;;;;;;;;5057698;28;20119;-91
2022/01/21 10:59:53;;;;;;;13.43;3.25;;;;;;;;;;5092846;28;20036;-92
2022/01/21 11:02:30;;;;;;;18.10;4.50;;;;;;;;;;5057957;28;20032;-92
2022/01/21 11:04:59;;;;;;;17.13;3.90;;;;;;;;;;5093525;28;20044;-94
2022/01/21 11:07:44;;;;;;;13.82;3.10;;;;;;;;;;5093511;28;20032;-93
2022/01/21 11:10:30;;;;;;;15.13;3.22;;;;;;;;;;5092490;28;20146;-93
2022/01/21 11:13:02;;;;;;;15.85;4.68;;;;;;;;;;5058979;28;20054;-92
2022/01/21 11:15:48;;;;;;;14.73;3.28;;;;;;;;;;5059104;28;20044;-93
2022/01/21 11:18:18;;;;;;;19.48;4.00;;;;;;;;;;5093269;28;20059;-92
2022/01/21 11:20:48;;;;;;;15.40;3.67;;;;;;;;;;5092038;28;20043;-92
2022/01/21 11:23:15;;;;;;;14.07;3.55;;;;;;;;;;5091865;28;20043;-92
2022/01/21 11:25:46;;;;;;;16.02;4.07;;;;;;;;;;5092069;28;20036;-92
2022/01/21 11:28:12;;;;;;;22.48;4.55;;;;;;;;;;5057389;28;20385;-93
2022/01/21 11:30:39;;;;;;;23.65;4.43;;;;;;;;;;5058786;28;20079;-92
2022/01/21 11:33:05;;;;;;;15.98;4.38;;;;;;;;;;5090669;28;20043;-94
2022/01/21 11:35:31;;;;;;;23.55;4.63;;;;;;;;;;5073456;28;20036;-87
2022/01/21 11:37:58;;;;;;;18.10;3.78;;;;;;;;;;5057728;28;20038;-93
2022/01/21 11:40:31;;;;;;;16.13;3.70;;;;;;;;;;5073689;28;20122;-90
2022/01/21 11:42:58;;;;;;;13.93;4.00;;;;;;;;;;5056661;28;20107;-91
2022/01/21 11:50:31;;;;;;;17.75;4.47;;;;;;;;;;5072637;28;20076;-90
2022/01/21 11:52:58;;;;;;;13.57;3.60;;;;;;;;;;5072276;28;20063;-92
2022/01/21 11:55:57;;;;;;;20.30;4.13;;;;;;;;;;5089565;28;20047;-92
2022/01/21 11:58:24;;;;;;;16.25;4.32;;;;;;;;;;5057148;28;20404;-88
2022/01/21 12:00:52;;;;;;;18.00;3.38;;;;;;;;;;5072356;28;20077;-92
2022/01/21 12:03:21;;;;;;;17.95;4.43;;;;;;;;;;5090270;28;20040;-91
2022/01/21 12:05:47;;;;;;;14.15;3.83;;;;;;;;;;5089539;28;20044;-86
2022/01/21 12:08:14;;;;;;;14.48;2.80;;;;;;;;;;5089335;28;20040;-90
2022/01/21 12:10:46;;;;;;;14.20;3.35;;;;;;;;;;5055563;28;20046;-87
2022/01/21 12:13:22;;;;;;;11.20;2.88;;;;;;;;;;5056048;28;20036;-89
2022/01/21 12:18:55;;;;;;;10.65;2.53;;;;;;;;;;5055876;28;20049;-90
2022/01/21 12:21:28;;;;;;;11.70;2.40;;;;;;;;;;5062925;28;20120;-91
2022/01/21 12:23:55;;;;;;;11.63;2.92;;;;;;;;;;5083264;28;20501;-91
2022/01/21 12:26:25;;;;;;;11.32;2.58;;;;;;;;;;5037847;28;20310;-93
2022/01/21 12:28:57;;;;;;;10.50;2.30;;;;;;;;;;5075682;28;20044;-91
2022/01/21 12:31:45;;;;;;;12.20;2.92;;;;;;;;;;5073164;28;20399;-88
2022/01/21 12:34:16;;;;;;;13.38;2.50;;;;;;;;;;5040806;28;20070;-85
2022/01/21 12:36:53;;;;;;;12.63;2.40;;;;;;;;;;5056042;28;20078;-92
2022/01/21 12:39:55;;;;;;;12.73;2.35;;;;;;;;;;5055993;28;20444;-91
2022/01/21 12:42:27;;;;;;;10.75;2.30;;;;;;;;;;5024847;28;20042;-94
2022/01/21 12:44:57;;;;;;;12.57;1.92;;;;;;;;;;5027200;28;20048;-90
2022/01/21 12:47:43;;;;;;;7.18;2.15;;;;;;;;;;5082742;28;20044;-91
2022/01/21 12:50:37;;;;;;;11.55;2.35;;;;;;;;;;5052318;28;20032;-90
2022/01/21 12:58:23;;;;;;;12.27;2.95;;;;;;;;;;5077332;28;20044;-88
2022/01/21 13:00:55;;;;;;;10.02;1.85;;;;;;;;;;5055050;28;20085;-89
2022/01/21 13:03:24;;;;;;;15.20;3.38;;;;;;;;;;5039414;28;20032;-87
2022/01/21 13:05:57;;;;;;;15.48;3.03;;;;;;;;;;5088358;28;20055;-90
2022/01/21 13:08:27;;;;;;;11.95;2.10;;;;;;;;;;5047248;28;20048;-90
2022/01/21 13:10:59;;;;;;;10.23;2.45;;;;;;;;;;5080331;28;20097;-90
2022/01/21 13:13:48;;;;;;;13.68;2.50;;;;;;;;;;5036554;28;20052;-88
2022/01/21 13:16:31;;;;;;;10.15;2.38;;;;;;;;;;5062803;28;20039;-87
2022/01/21 13:19:01;;;;;;;15.18;3.55;;;;;;;;;;5075577;28;20045;-89
2022/01/21 13:21:27;;;;;;;11.18;2.47;;;;;;;;;;5067816;28;20075;-89
2022/01/21 13:23:58;;;;;;;13.27;2.28;;;;;;;;;;5055276;28;20040;-91
2022/01/21 13:26:26;;;;;;;12.55;2.42;;;;;;;;;;5044906;28;20396;-89
2022/01/21 13:29:01;;;;;;;9.68;2.38;;;;;;;;;;5069345;28;20041;-91
2022/01/21 13:31:28;;;;;;;11.45;2.90;;;;;;;;;;5084877;28;20496;-89
2022/01/21 13:34:05;;;;;;;11.25;2.83;;;;;;;;;;5085094;28;20059;-88
2022/01/21 13:36:40;;;;;;;15.82;2.65;;;;;;;;;;5075780;28;20048;-90
2022/01/21 13:39:09;;;;;;;15.57;3.17;;;;;;;;;;5070179;28;20052;-88
2022/01/21 13:41:46;;;;;;;17.52;2.97;;;;;;;;;;5048357;28;20068;-88
2022/01/21 13:44:12;;;;;;;15.38;3.30;;;;;;;;;;5071639;28;20044;-91
2022/01/21 13:46:39;;;;;;;15.82;2.80;;;;;;;;;;5055689;28;20399;-88
2022/01/21 13:49:09;;;;;;;12.18;2.65;;;;;;;;;;5052090;28;20044;-89
2022/01/21 13:51:35;;;;;;;16.65;3.17;;;;;;;;;;5068954;28;20093;-87
2022/01/21 13:54:05;;;;;;;12.50;2.72;;;;;;;;;;5067534;28;20041;-89
2022/01/21 13:56:31;;;;;;;16.42;2.53;;;;;;;;;;5055441;28;20045;-89
2022/01/21 13:58:58;;;;;;;13.43;3.00;;;;;;;;;;5067986;28;20039;-89
2022/01/21 14:01:27;;;;;;;14.52;2.67;;;;;;;;;;5068252;28;20036;-90
2022/01/21 14:03:55;;;;;;;14.68;2.97;;;;;;;;;;5054414;28;20044;-90
2022/01/21 14:06:22;;;;;;;15.05;3.72;;;;;;;;;;5054848;28;20052;-88
2022/01/21 14:08:54;;;;;;;15.98;2.65;;;;;;;;;;5054457;28;20059;-89
2022/01/21 14:11:30;;;;;;;12.63;2.95;;;;;;;;;;5062726;28;20048;-90
2022/01/21 14:14:00;;;;;;;17.42;3.25;;;;;;;;;;5094539;28;20052;-87
2022/01/21 14:16:26;;;;;;;12.15;2.25;;;;;;;;;;5053414;28;20044;-88
2022/01/21 14:18:53;;;;;;;12.60;3.10;;;;;;;;;;5072316;28;20047;-89
2022/01/21 14:21:22;;;;;;;15.70;2.53;;;;;;;;;;5044951;28;20044;-88
2022/01/21 14:23:49;;;;;;;13.02;2.83;;;;;;;;;;5064338;28;20515;-91
2022/01/21 14:26:17;;;;;;;13.68;3.42;;;;;;;;;;5041713;28;20083;-88
2022/01/21 14:28:45;;;;;;;13.93;3.25;;;;;;;;;;5051461;28;20082;-87
2022/01/21 14:31:27;;;;;;;18.88;3.50;;;;;;;;;;5054221;28;20040;-89
2022/01/21 14:33:54;;;;;;;18.08;2.92;;;;;;;;;;5086728;28;20097;-88
2022/01/21 14:36:20;;;;;;;11.43;3.13;;;;;;;;;;5041192;28;20403;-88
2022/01/21 14:38:48;;;;;;;16.85;3.70;;;;;;;;;;5050866;28;20046;-95
2022/01/21 14:41:24;;;;;;;15.13;3.33;;;;;;;;;;5083269;28;20036;-90
2022/01/21 14:43:52;;;;;;;15.07;2.88;;;;;;;;;;5039071;28;20036;-91
2022/01/21 14:46:31;;;;;;;14.80;2.92;;;;;;;;;;5067681;28;20060;-88
2022/01/21 14:49:03;;;;;;;11.65;2.50;;;;;;;;;;5044151;28;20044;-93
2022/01/21 14:51:36;;;;;;;11.38;2.50;;;;;;;;;;5086046;28;20530;-83
2022/01/21 14:54:10;;;;;;;14.63;2.30;;;;;;;;;;5042183;28;20040;-86
2022/01/21 14:56:36;;;;;;;22.83;2.95;;;;;;;;;;5057609;28;20032;-93
2022/01/21 14:59:13;;;;;;;16.88;3.15;;;;;;;;;;5061928;28;20048;-93
2022/01/21 15:01:58;;;;;;;14.02;3.03;;;;;;;;;;5072418;28;20093;-90
2022/01/21 15:04:24;;;;;;;;;;;;;;;;;;5050062;28;20036;-88
2022/01/21 15:07:04;;;;;;;17.23;3.10;;;;;;;;;;5099468;28;19916;-89
2022/01/21 15:09:31;;;;;;;12.63;2.47;;;;;;;;;;5039806;28;20033;-90
2022/01/21 15:14:44;;;;;;;12.32;2.55;;;;;;;;;;5037927;28;20052;-87
2022/01/21 15:17:16;;;;;;;14.43;2.90;;;;;;;;;;5072769;28;20193;-92
2022/01/21 15:19:42;;;;;;;10.07;2.30;;;;;;;;;;5056276;28;20404;-89
2022/01/21 15:22:11;;;;;;;13.77;2.65;;;;;;;;;;5056111;28;20127;-90
2022/01/21 15:24:38;;;;;;;8.85;2.08;;;;;;;;;;5073745;28;20495;-89
2022/01/21 15:27:05;;;;;;;12.27;1.92;;;;;;;;;;5056706;28;20518;-86
2022/01/21 15:29:31;;;;;;;9.13;2.15;;;;;;;;;;5118631;27;20031;-91
2022/01/21 15:31:57;;;;;;;13.23;2.45;;;;;;;;;;5063683;28;20118;-88
2022/01/21 15:34:23;;;;;;;10.30;1.90;;;;;;;;;;5083055;28;20088;-92
2022/01/21 15:36:50;;;;;;;12.50;2.22;;;;;;;;;;5089734;28;20027;-90
2022/01/21 15:39:16;;;;;;;7.35;1.80;;;;;;;;;;5072472;28;20036;-87
2022/01/21 15:41:43;;;;;;;9.52;1.80;;;;;;;;;;5089986;28;20042;-86
2022/01/21 15:44:09;;;;;;;10.48;2.10;;;;;;;;;;5084285;28;20039;-88
2022/01/21 15:46:37;;;;;;;6.88;1.83;;;;;;;;;;5072814;28;20040;-88
2022/01/21 15:49:04;;;;;;;12.23;2.33;;;;;;;;;;5063779;28;20062;-84